ADDS TAF Data INFO
IDs: Format: Raw Decoded Include METARs

Data at: 1042 UTC 24 Jun 2018

TAF for:KSJC (San Jose Intl Arpt, CA, US) issued at 0520 UTC 24 Jun 2018
Text:KSJC 240520Z 2406/2506 14008KT P6SM SKC
Forecast period:0600 to 2100 UTC 24 June 2018
Forecast type:FROM: standard forecast or significant change
Winds:from the SE (140 degrees) at 9 MPH (8 knots; 4.1 m/s)
Visibility:6 or more sm (10+ km)
Ceiling:at least 12,000 feet AGL
Clouds:clear skies
Text:FM242100 24010KT P6SM SKC
Forecast period:2100 to 2300 UTC 24 June 2018
Forecast type:FROM: standard forecast or significant change
Winds:from the WSW (240 degrees) at 12 MPH (10 knots; 5.1 m/s)
Visibility:6 or more sm (10+ km)
Ceiling:at least 12,000 feet AGL
Clouds:clear skies
Text:FM242300 32012KT P6SM SKC
Forecast period:2300 UTC 24 June 2018 to 0400 UTC 25 June 2018
Forecast type:FROM: standard forecast or significant change
Winds:from the NW (320 degrees) at 14 MPH (12 knots; 6.2 m/s)
Visibility:6 or more sm (10+ km)
Ceiling:at least 12,000 feet AGL
Clouds:clear skies
Text:FM250400 30008KT P6SM SKC
Forecast period:0400 to 0600 UTC 25 June 2018
Forecast type:FROM: standard forecast or significant change
Winds:from the WNW (300 degrees) at 9 MPH (8 knots; 4.1 m/s)
Visibility:6 or more sm (10+ km)
Ceiling:at least 12,000 feet AGL
Clouds:clear skies